Terminal Aerodrome Forecast
Issued by NWS Wilmington, OH

Current Version | Previous Version | Graphics & Text | Print | Product List | Glossary On
Versions: 1 2 3 4 5 6 7 8 9 10 11 12 13 14 15 16 17 18 19
000
FTUS41 KILN 190200 AAA
TAFDAY
TAF AMD
KDAY 190231Z 1903/1924 01006KT P6SM SCT050
     FM190500 VRB03KT 5SM BR SCT050
     FM191300 22005KT P6SM BKN250
     FM191600 24010KT P6SM BKN050=

USA.gov is the U.S. government's official web portal to all federal, state and local government web resources and services.